sensor_id;sensor_type;location;lat;lon;timestamp;temperature;humidity
7196;DHT22;3639;51.308;5.624;2023-06-22T00:00:32;20.10;99.90
7196;DHT22;3639;51.308;5.624;2023-06-22T00:02:58;20.10;99.90
7196;DHT22;3639;51.308;5.624;2023-06-22T00:05:24;20.10;99.90
7196;DHT22;3639;51.308;5.624;2023-06-22T00:07:49;20.10;99.90
7196;DHT22;3639;51.308;5.624;2023-06-22T00:10:15;20.00;99.90
7196;DHT22;3639;51.308;5.624;2023-06-22T00:12:40;20.00;99.90
7196;DHT22;3639;51.308;5.624;2023-06-22T00:15:06;19.90;99.90
7196;DHT22;3639;51.308;5.624;2023-06-22T00:17:32;19.90;99.90
7196;DHT22;3639;51.308;5.624;2023-06-22T00:19:57;19.90;99.90
7196;DHT22;3639;51.308;5.624;2023-06-22T00:22:24;19.90;99.90
7196;DHT22;3639;51.308;5.624;2023-06-22T00:24:55;19.90;99.90
7196;DHT22;3639;51.308;5.624;2023-06-22T00:27:21;19.80;99.90
7196;DHT22;3639;51.308;5.624;2023-06-22T00:29:46;19.80;99.90
7196;DHT22;3639;51.308;5.624;2023-06-22T00:32:12;19.70;99.90
7196;DHT22;3639;51.308;5.624;2023-06-22T00:34:37;19.70;99.90
7196;DHT22;3639;51.308;5.624;2023-06-22T00:37:03;19.60;99.90
7196;DHT22;3639;51.308;5.624;2023-06-22T00:39:29;19.60;99.90
7196;DHT22;3639;51.308;5.624;2023-06-22T00:41:54;19.60;99.90
7196;DHT22;3639;51.308;5.624;2023-06-22T00:44:20;19.50;99.90
7196;DHT22;3639;51.308;5.624;2023-06-22T00:46:46;19.50;99.90
7196;DHT22;3639;51.308;5.624;2023-06-22T00:49:11;19.50;99.90
7196;DHT22;3639;51.308;5.624;2023-06-22T00:51:38;19.50;99.90
7196;DHT22;3639;51.308;5.624;2023-06-22T00:54:04;19.40;99.90
7196;DHT22;3639;51.308;5.624;2023-06-22T00:56:31;19.40;99.90
7196;DHT22;3639;51.308;5.624;2023-06-22T00:58:58;19.40;99.90
7196;DHT22;3639;51.308;5.624;2023-06-22T01:01:25;19.40;99.90
7196;DHT22;3639;51.308;5.624;2023-06-22T01:03:51;19.40;99.90
7196;DHT22;3639;51.308;5.624;2023-06-22T01:06:35;19.30;99.90
7196;DHT22;3639;51.308;5.624;2023-06-22T01:09:24;19.30;99.90
7196;DHT22;3639;51.308;5.624;2023-06-22T01:11:59;19.30;99.90
7196;DHT22;3639;51.308;5.624;2023-06-22T01:14:47;19.30;99.90
7196;DHT22;3639;51.308;5.624;2023-06-22T01:17:19;19.30;99.90
7196;DHT22;3639;51.308;5.624;2023-06-22T01:19:47;19.40;99.90
7196;DHT22;3639;51.308;5.624;2023-06-22T01:22:19;19.40;99.90
7196;DHT22;3639;51.308;5.624;2023-06-22T01:25:09;19.30;99.90
7196;DHT22;3639;51.308;5.624;2023-06-22T01:27:40;19.30;99.90
7196;DHT22;3639;51.308;5.624;2023-06-22T01:30:13;19.30;99.90
7196;DHT22;3639;51.308;5.624;2023-06-22T01:32:41;19.40;99.90
7196;DHT22;3639;51.308;5.624;2023-06-22T01:35:08;19.40;99.90
7196;DHT22;3639;51.308;5.624;2023-06-22T01:37:36;19.40;99.90
7196;DHT22;3639;51.308;5.624;2023-06-22T01:40:03;19.50;99.90
7196;DHT22;3639;51.308;5.624;2023-06-22T01:42:32;19.50;99.90
7196;DHT22;3639;51.308;5.624;2023-06-22T01:44:59;19.50;99.90
7196;DHT22;3639;51.308;5.624;2023-06-22T01:47:25;19.50;99.90
7196;DHT22;3639;51.308;5.624;2023-06-22T01:49:53;19.40;99.90
7196;DHT22;3639;51.308;5.624;2023-06-22T01:52:19;19.40;99.90
7196;DHT22;3639;51.308;5.624;2023-06-22T01:54:46;19.40;99.90
7196;DHT22;3639;51.308;5.624;2023-06-22T01:57:12;19.40;99.90
7196;DHT22;3639;51.308;5.624;2023-06-22T02:02:11;19.40;99.90
7196;DHT22;3639;51.308;5.624;2023-06-22T02:04:59;19.40;99.90
7196;DHT22;3639;51.308;5.624;2023-06-22T02:07:31;19.40;99.90
7196;DHT22;3639;51.308;5.624;2023-06-22T02:09:58;19.40;99.90
7196;DHT22;3639;51.308;5.624;2023-06-22T02:12:25;19.40;99.90
7196;DHT22;3639;51.308;5.624;2023-06-22T02:14:53;19.40;99.90
7196;DHT22;3639;51.308;5.624;2023-06-22T02:17:19;19.40;99.90
7196;DHT22;3639;51.308;5.624;2023-06-22T02:19:45;19.40;99.90
7196;DHT22;3639;51.308;5.624;2023-06-22T02:22:11;19.40;99.90
7196;DHT22;3639;51.308;5.624;2023-06-22T02:24:38;19.40;99.90
7196;DHT22;3639;51.308;5.624;2023-06-22T02:27:03;19.40;99.90
7196;DHT22;3639;51.308;5.624;2023-06-22T02:29:31;19.40;99.90
7196;DHT22;3639;51.308;5.624;2023-06-22T02:31:56;19.30;99.90
7196;DHT22;3639;51.308;5.624;2023-06-22T02:34:22;19.30;99.90
7196;DHT22;3639;51.308;5.624;2023-06-22T02:36:49;19.30;99.90
7196;DHT22;3639;51.308;5.624;2023-06-22T02:39:21;19.30;99.90
7196;DHT22;3639;51.308;5.624;2023-06-22T02:41:49;19.30;99.90
7196;DHT22;3639;51.308;5.624;2023-06-22T02:44:15;19.30;99.90
7196;DHT22;3639;51.308;5.624;2023-06-22T02:46:41;19.30;99.90
7196;DHT22;3639;51.308;5.624;2023-06-22T02:49:06;19.40;99.90
7196;DHT22;3639;51.308;5.624;2023-06-22T02:51:38;19.40;99.90
7196;DHT22;3639;51.308;5.624;2023-06-22T02:54:05;19.40;99.90
7196;DHT22;3639;51.308;5.624;2023-06-22T02:56:31;19.40;99.90
7196;DHT22;3639;51.308;5.624;2023-06-22T02:58:57;19.40;99.90
7196;DHT22;3639;51.308;5.624;2023-06-22T03:01:30;19.50;99.90
7196;DHT22;3639;51.308;5.624;2023-06-22T03:03:58;19.50;99.90
7196;DHT22;3639;51.308;5.624;2023-06-22T03:06:24;19.50;99.90
7196;DHT22;3639;51.308;5.624;2023-06-22T03:09:01;19.40;99.90
7196;DHT22;3639;51.308;5.624;2023-06-22T03:11:29;19.30;99.90
7196;DHT22;3639;51.308;5.624;2023-06-22T03:13:56;19.30;99.90
7196;DHT22;3639;51.308;5.624;2023-06-22T03:16:21;19.20;99.90
7196;DHT22;3639;51.308;5.624;2023-06-22T03:18:47;19.30;99.90
7196;DHT22;3639;51.308;5.624;2023-06-22T03:21:13;19.20;99.90
7196;DHT22;3639;51.308;5.624;2023-06-22T03:23:40;19.20;99.90
7196;DHT22;3639;51.308;5.624;2023-06-22T03:26:06;19.20;99.90
7196;DHT22;3639;51.308;5.624;2023-06-22T03:28:32;19.10;99.90
7196;DHT22;3639;51.308;5.624;2023-06-22T03:30:58;19.10;99.90
7196;DHT22;3639;51.308;5.624;2023-06-22T03:33:24;19.00;99.90
7196;DHT22;3639;51.308;5.624;2023-06-22T03:35:49;18.90;99.90
7196;DHT22;3639;51.308;5.624;2023-06-22T03:38:16;18.90;99.90
7196;DHT22;3639;51.308;5.624;2023-06-22T03:40:42;18.80;99.90
7196;DHT22;3639;51.308;5.624;2023-06-22T03:43:08;18.80;99.90
7196;DHT22;3639;51.308;5.624;2023-06-22T03:45:34;18.80;99.90
7196;DHT22;3639;51.308;5.624;2023-06-22T03:48:00;18.80;99.90
7196;DHT22;3639;51.308;5.624;2023-06-22T03:50:26;18.80;99.90
7196;DHT22;3639;51.308;5.624;2023-06-22T03:52:52;18.80;99.90
7196;DHT22;3639;51.308;5.624;2023-06-22T03:55:19;18.80;99.90
7196;DHT22;3639;51.308;5.624;2023-06-22T03:57:44;18.80;99.90
7196;DHT22;3639;51.308;5.624;2023-06-22T04:00:10;18.70;99.90
7196;DHT22;3639;51.308;5.624;2023-06-22T04:02:36;18.70;99.90
7196;DHT22;3639;51.308;5.624;2023-06-22T04:05:02;18.70;99.90
7196;DHT22;3639;51.308;5.624;2023-06-22T04:07:28;18.70;99.90
7196;DHT22;3639;51.308;5.624;2023-06-22T04:09:53;18.70;99.90
7196;DHT22;3639;51.308;5.624;2023-06-22T04:12:19;18.70;99.90
7196;DHT22;3639;51.308;5.624;2023-06-22T04:14:44;18.70;99.90
7196;DHT22;3639;51.308;5.624;2023-06-22T04:17:10;18.80;99.90
7196;DHT22;3639;51.308;5.624;2023-06-22T04:19:35;18.80;99.90
7196;DHT22;3639;51.308;5.624;2023-06-22T04:22:01;18.90;99.90
7196;DHT22;3639;51.308;5.624;2023-06-22T04:24:27;18.90;99.90
7196;DHT22;3639;51.308;5.624;2023-06-22T04:26:52;19.00;99.90
7196;DHT22;3639;51.308;5.624;2023-06-22T04:29:20;19.00;99.90
7196;DHT22;3639;51.308;5.624;2023-06-22T04:31:46;19.00;99.90
7196;DHT22;3639;51.308;5.624;2023-06-22T04:34:16;19.10;99.90
7196;DHT22;3639;51.308;5.624;2023-06-22T04:36:42;19.10;99.90
7196;DHT22;3639;51.308;5.624;2023-06-22T04:39:09;19.20;99.90
7196;DHT22;3639;51.308;5.624;2023-06-22T04:41:39;19.30;99.90
7196;DHT22;3639;51.308;5.624;2023-06-22T04:44:12;19.30;99.90
7196;DHT22;3639;51.308;5.624;2023-06-22T04:46:38;19.40;99.90
7196;DHT22;3639;51.308;5.624;2023-06-22T04:49:08;19.50;99.90
7196;DHT22;3639;51.308;5.624;2023-06-22T04:51:42;19.50;99.90
7196;DHT22;3639;51.308;5.624;2023-06-22T04:54:08;19.50;99.90
7196;DHT22;3639;51.308;5.624;2023-06-22T04:56:34;19.60;99.90
7196;DHT22;3639;51.308;5.624;2023-06-22T04:59:00;19.60;99.90
7196;DHT22;3639;51.308;5.624;2023-06-22T05:01:26;19.60;99.90
7196;DHT22;3639;51.308;5.624;2023-06-22T05:03:52;19.60;99.90
7196;DHT22;3639;51.308;5.624;2023-06-22T05:06:24;19.70;99.90
7196;DHT22;3639;51.308;5.624;2023-06-22T05:08:59;19.70;99.90
7196;DHT22;3639;51.308;5.624;2023-06-22T05:11:26;19.80;99.90
7196;DHT22;3639;51.308;5.624;2023-06-22T05:13:52;19.80;99.90
7196;DHT22;3639;51.308;5.624;2023-06-22T05:16:18;19.90;99.90
7196;DHT22;3639;51.308;5.624;2023-06-22T05:18:52;19.90;99.90
7196;DHT22;3639;51.308;5.624;2023-06-22T05:21:22;19.90;99.90
7196;DHT22;3639;51.308;5.624;2023-06-22T05:23:48;19.90;99.90
7196;DHT22;3639;51.308;5.624;2023-06-22T05:26:13;19.90;99.90
7196;DHT22;3639;51.308;5.624;2023-06-22T05:28:39;20.00;99.90
7196;DHT22;3639;51.308;5.624;2023-06-22T05:31:04;20.00;99.90
7196;DHT22;3639;51.308;5.624;2023-06-22T05:33:30;20.00;99.90
7196;DHT22;3639;51.308;5.624;2023-06-22T05:35:55;19.90;99.90
7196;DHT22;3639;51.308;5.624;2023-06-22T05:38:21;19.90;99.90
7196;DHT22;3639;51.308;5.624;2023-06-22T05:40:47;19.80;99.90
7196;DHT22;3639;51.308;5.624;2023-06-22T05:43:12;19.80;99.90
7196;DHT22;3639;51.308;5.624;2023-06-22T05:45:38;19.80;99.90
7196;DHT22;3639;51.308;5.624;2023-06-22T05:48:04;19.90;99.90
7196;DHT22;3639;51.308;5.624;2023-06-22T05:50:29;19.80;99.90
7196;DHT22;3639;51.308;5.624;2023-06-22T05:52:55;19.90;99.90
7196;DHT22;3639;51.308;5.624;2023-06-22T05:55:20;19.90;99.90
7196;DHT22;3639;51.308;5.624;2023-06-22T05:57:46;20.00;99.90
7196;DHT22;3639;51.308;5.624;2023-06-22T06:00:12;20.00;99.90
7196;DHT22;3639;51.308;5.624;2023-06-22T06:02:38;20.00;99.90
7196;DHT22;3639;51.308;5.624;2023-06-22T06:05:10;20.10;99.90
7196;DHT22;3639;51.308;5.624;2023-06-22T06:07:36;20.10;99.90
7196;DHT22;3639;51.308;5.624;2023-06-22T06:10:03;20.10;99.90
7196;DHT22;3639;51.308;5.624;2023-06-22T06:12:30;20.10;99.90
7196;DHT22;3639;51.308;5.624;2023-06-22T06:14:55;20.10;99.90
7196;DHT22;3639;51.308;5.624;2023-06-22T06:17:22;20.10;99.90
7196;DHT22;3639;51.308;5.624;2023-06-22T06:19:47;20.10;99.90
7196;DHT22;3639;51.308;5.624;2023-06-22T06:22:13;20.20;99.90
7196;DHT22;3639;51.308;5.624;2023-06-22T06:24:38;20.30;99.90
7196;DHT22;3639;51.308;5.624;2023-06-22T06:27:04;20.40;99.90
7196;DHT22;3639;51.308;5.624;2023-06-22T06:29:31;20.40;99.90
7196;DHT22;3639;51.308;5.624;2023-06-22T06:31:56;20.50;99.90
7196;DHT22;3639;51.308;5.624;2023-06-22T06:34:22;20.60;99.90
7196;DHT22;3639;51.308;5.624;2023-06-22T06:36:47;20.60;99.90
7196;DHT22;3639;51.308;5.624;2023-06-22T06:39:13;20.70;99.90
7196;DHT22;3639;51.308;5.624;2023-06-22T06:41:39;20.70;99.90
7196;DHT22;3639;51.308;5.624;2023-06-22T06:44:04;20.80;99.90
7196;DHT22;3639;51.308;5.624;2023-06-22T06:46:30;20.80;99.90
7196;DHT22;3639;51.308;5.624;2023-06-22T06:48:55;20.90;99.90
7196;DHT22;3639;51.308;5.624;2023-06-22T06:51:21;21.00;99.90
7196;DHT22;3639;51.308;5.624;2023-06-22T06:53:47;21.10;99.90
7196;DHT22;3639;51.308;5.624;2023-06-22T06:56:12;21.30;99.90
7196;DHT22;3639;51.308;5.624;2023-06-22T06:58:41;21.30;99.90
7196;DHT22;3639;51.308;5.624;2023-06-22T07:01:07;21.20;99.90
7196;DHT22;3639;51.308;5.624;2023-06-22T07:03:33;21.30;99.90
7196;DHT22;3639;51.308;5.624;2023-06-22T07:05:59;21.30;99.90
7196;DHT22;3639;51.308;5.624;2023-06-22T07:08:25;21.30;99.90
7196;DHT22;3639;51.308;5.624;2023-06-22T07:10:52;21.40;99.90
7196;DHT22;3639;51.308;5.624;2023-06-22T07:13:18;21.40;99.90
7196;DHT22;3639;51.308;5.624;2023-06-22T07:15:43;21.40;99.90
7196;DHT22;3639;51.308;5.624;2023-06-22T07:18:09;21.50;99.90
7196;DHT22;3639;51.308;5.624;2023-06-22T07:20:34;21.50;99.90
7196;DHT22;3639;51.308;5.624;2023-06-22T07:23:00;21.40;99.90
7196;DHT22;3639;51.308;5.624;2023-06-22T07:25:26;21.40;99.90
7196;DHT22;3639;51.308;5.624;2023-06-22T07:28:00;21.40;99.90
7196;DHT22;3639;51.308;5.624;2023-06-22T07:30:27;21.50;99.90
7196;DHT22;3639;51.308;5.624;2023-06-22T07:32:53;21.50;99.90
7196;DHT22;3639;51.308;5.624;2023-06-22T07:35:19;21.50;99.90
7196;DHT22;3639;51.308;5.624;2023-06-22T07:37:45;21.50;99.90
7196;DHT22;3639;51.308;5.624;2023-06-22T07:40:11;21.50;99.90
7196;DHT22;3639;51.308;5.624;2023-06-22T07:42:36;21.50;99.90
7196;DHT22;3639;51.308;5.624;2023-06-22T07:45:25;21.40;99.90
7196;DHT22;3639;51.308;5.624;2023-06-22T07:47:51;21.30;99.90
7196;DHT22;3639;51.308;5.624;2023-06-22T07:50:17;21.20;99.90
7196;DHT22;3639;51.308;5.624;2023-06-22T07:52:42;21.10;99.90
7196;DHT22;3639;51.308;5.624;2023-06-22T07:55:08;21.00;99.90
7196;DHT22;3639;51.308;5.624;2023-06-22T07:57:34;21.00;99.90
7196;DHT22;3639;51.308;5.624;2023-06-22T08:00:00;21.10;99.90
7196;DHT22;3639;51.308;5.624;2023-06-22T08:02:26;21.20;99.90
7196;DHT22;3639;51.308;5.624;2023-06-22T08:04:52;21.30;99.90
7196;DHT22;3639;51.308;5.624;2023-06-22T08:07:17;21.40;99.90
7196;DHT22;3639;51.308;5.624;2023-06-22T08:09:48;21.50;99.90
7196;DHT22;3639;51.308;5.624;2023-06-22T08:12:14;21.60;99.90
7196;DHT22;3639;51.308;5.624;2023-06-22T08:14:42;21.70;99.90
7196;DHT22;3639;51.308;5.624;2023-06-22T08:17:08;21.80;99.90
7196;DHT22;3639;51.308;5.624;2023-06-22T08:19:34;21.90;99.90
7196;DHT22;3639;51.308;5.624;2023-06-22T08:21:59;21.90;99.90
7196;DHT22;3639;51.308;5.624;2023-06-22T08:24:25;21.90;99.90
7196;DHT22;3639;51.308;5.624;2023-06-22T08:26:51;22.00;99.90
7196;DHT22;3639;51.308;5.624;2023-06-22T08:29:17;22.00;99.90
7196;DHT22;3639;51.308;5.624;2023-06-22T08:31:43;22.00;99.90
7196;DHT22;3639;51.308;5.624;2023-06-22T08:34:08;22.10;99.90
7196;DHT22;3639;51.308;5.624;2023-06-22T08:36:34;22.30;99.90
7196;DHT22;3639;51.308;5.624;2023-06-22T08:39:03;22.30;99.90
7196;DHT22;3639;51.308;5.624;2023-06-22T08:41:29;22.50;99.90
7196;DHT22;3639;51.308;5.624;2023-06-22T08:43:55;22.40;99.90
7196;DHT22;3639;51.308;5.624;2023-06-22T08:46:21;22.40;99.90
7196;DHT22;3639;51.308;5.624;2023-06-22T08:48:49;22.40;99.90
7196;DHT22;3639;51.308;5.624;2023-06-22T08:51:16;22.40;99.90
7196;DHT22;3639;51.308;5.624;2023-06-22T08:53:45;22.40;99.90
7196;DHT22;3639;51.308;5.624;2023-06-22T08:56:11;22.30;99.90
7196;DHT22;3639;51.308;5.624;2023-06-22T08:58:36;22.30;99.90
7196;DHT22;3639;51.308;5.624;2023-06-22T09:01:02;22.20;99.90
7196;DHT22;3639;51.308;5.624;2023-06-22T09:03:28;22.30;99.90
7196;DHT22;3639;51.308;5.624;2023-06-22T09:05:53;22.30;99.90
7196;DHT22;3639;51.308;5.624;2023-06-22T09:08:19;22.30;99.90
7196;DHT22;3639;51.308;5.624;2023-06-22T09:10:45;22.40;99.90
7196;DHT22;3639;51.308;5.624;2023-06-22T09:13:10;22.40;99.90
7196;DHT22;3639;51.308;5.624;2023-06-22T09:15:36;22.40;99.90
7196;DHT22;3639;51.308;5.624;2023-06-22T09:18:01;22.60;99.90
7196;DHT22;3639;51.308;5.624;2023-06-22T09:20:27;22.70;99.90
7196;DHT22;3639;51.308;5.624;2023-06-22T09:22:53;22.70;99.90
7196;DHT22;3639;51.308;5.624;2023-06-22T09:25:18;22.80;99.90
7196;DHT22;3639;51.308;5.624;2023-06-22T09:27:46;22.70;99.90
7196;DHT22;3639;51.308;5.624;2023-06-22T09:30:12;22.80;99.90
7196;DHT22;3639;51.308;5.624;2023-06-22T09:32:37;22.80;99.90
7196;DHT22;3639;51.308;5.624;2023-06-22T09:35:05;22.80;99.90
7196;DHT22;3639;51.308;5.624;2023-06-22T09:37:32;22.80;99.90
7196;DHT22;3639;51.308;5.624;2023-06-22T09:39:57;22.70;99.90
7196;DHT22;3639;51.308;5.624;2023-06-22T09:42:23;22.70;99.90
7196;DHT22;3639;51.308;5.624;2023-06-22T09:44:48;22.70;99.90
7196;DHT22;3639;51.308;5.624;2023-06-22T09:47:14;22.70;99.90
7196;DHT22;3639;51.308;5.624;2023-06-22T16:10:32;18.10;99.90
7196;DHT22;3639;51.308;5.624;2023-06-22T16:12:57;18.10;99.90
7196;DHT22;3639;51.308;5.624;2023-06-22T16:15:23;18.10;99.90
7196;DHT22;3639;51.308;5.624;2023-06-22T16:17:48;18.10;99.90
7196;DHT22;3639;51.308;5.624;2023-06-22T16:20:14;18.10;99.90
7196;DHT22;3639;51.308;5.624;2023-06-22T16:22:41;18.10;99.90
7196;DHT22;3639;51.308;5.624;2023-06-22T16:25:07;18.10;99.90
7196;DHT22;3639;51.308;5.624;2023-06-22T16:27:33;18.10;99.90
7196;DHT22;3639;51.308;5.624;2023-06-22T16:29:59;18.10;99.90
7196;DHT22;3639;51.308;5.624;2023-06-22T16:32:25;18.10;99.90
7196;DHT22;3639;51.308;5.624;2023-06-22T16:34:50;18.10;99.90
7196;DHT22;3639;51.308;5.624;2023-06-22T16:37:16;18.10;99.90
7196;DHT22;3639;51.308;5.624;2023-06-22T16:39:41;18.10;99.90
7196;DHT22;3639;51.308;5.624;2023-06-22T16:42:09;18.10;99.90
7196;DHT22;3639;51.308;5.624;2023-06-22T16:44:34;18.00;99.90
7196;DHT22;3639;51.308;5.624;2023-06-22T16:47:00;17.90;99.90
7196;DHT22;3639;51.308;5.624;2023-06-22T16:49:27;17.90;99.90
7196;DHT22;3639;51.308;5.624;2023-06-22T16:51:53;17.80;99.90
7196;DHT22;3639;51.308;5.624;2023-06-22T16:54:18;17.80;99.90
7196;DHT22;3639;51.308;5.624;2023-06-22T16:56:46;17.80;99.90
7196;DHT22;3639;51.308;5.624;2023-06-22T16:59:11;17.70;99.90
7196;DHT22;3639;51.308;5.624;2023-06-22T17:01:48;17.70;99.90
7196;DHT22;3639;51.308;5.624;2023-06-22T17:04:16;17.80;99.90
7196;DHT22;3639;51.308;5.624;2023-06-22T17:06:52;17.80;99.90
7196;DHT22;3639;51.308;5.624;2023-06-22T17:09:19;17.80;99.90
7196;DHT22;3639;51.308;5.624;2023-06-22T17:11:47;17.80;99.90
7196;DHT22;3639;51.308;5.624;2023-06-22T17:14:15;17.80;99.90
7196;DHT22;3639;51.308;5.624;2023-06-22T17:16:42;17.80;99.90
7196;DHT22;3639;51.308;5.624;2023-06-22T17:19:10;17.90;99.90
7196;DHT22;3639;51.308;5.624;2023-06-22T17:21:37;17.90;99.90
7196;DHT22;3639;51.308;5.624;2023-06-22T17:24:03;17.90;99.90
7196;DHT22;3639;51.308;5.624;2023-06-22T17:26:30;18.00;99.90
7196;DHT22;3639;51.308;5.624;2023-06-22T17:28:56;18.00;99.90
7196;DHT22;3639;51.308;5.624;2023-06-22T17:31:38;18.00;99.90
7196;DHT22;3639;51.308;5.624;2023-06-22T17:34:08;18.10;99.90
7196;DHT22;3639;51.308;5.624;2023-06-22T17:36:42;18.10;99.90
7196;DHT22;3639;51.308;5.624;2023-06-22T17:39:16;18.20;99.90
7196;DHT22;3639;51.308;5.624;2023-06-22T17:41:43;18.20;99.90
7196;DHT22;3639;51.308;5.624;2023-06-22T17:44:11;18.20;99.90
7196;DHT22;3639;51.308;5.624;2023-06-22T17:46:39;18.20;99.90
7196;DHT22;3639;51.308;5.624;2023-06-22T17:49:10;18.30;99.90
7196;DHT22;3639;51.308;5.624;2023-06-22T17:51:38;18.30;99.90
7196;DHT22;3639;51.308;5.624;2023-06-22T17:54:04;18.30;99.90
7196;DHT22;3639;51.308;5.624;2023-06-22T17:56:31;18.30;99.90
7196;DHT22;3639;51.308;5.624;2023-06-22T17:58:56;18.30;99.90
7196;DHT22;3639;51.308;5.624;2023-06-22T18:01:37;18.30;99.90
7196;DHT22;3639;51.308;5.624;2023-06-22T18:04:11;18.40;99.90
7196;DHT22;3639;51.308;5.624;2023-06-22T18:06:47;18.40;99.90
7196;DHT22;3639;51.308;5.624;2023-06-22T18:09:16;18.40;99.90
7196;DHT22;3639;51.308;5.624;2023-06-22T18:11:49;18.40;99.90
7196;DHT22;3639;51.308;5.624;2023-06-22T18:14:17;18.50;99.90
7196;DHT22;3639;51.308;5.624;2023-06-22T18:16:45;18.50;99.90
7196;DHT22;3639;51.308;5.624;2023-06-22T18:19:13;18.50;99.90
7196;DHT22;3639;51.308;5.624;2023-06-22T18:21:40;18.50;99.90
7196;DHT22;3639;51.308;5.624;2023-06-22T18:24:06;18.50;99.90
7196;DHT22;3639;51.308;5.624;2023-06-22T18:26:32;18.50;99.90
7196;DHT22;3639;51.308;5.624;2023-06-22T18:28:58;18.60;99.90
7196;DHT22;3639;51.308;5.624;2023-06-22T18:31:24;18.60;99.90
7196;DHT22;3639;51.308;5.624;2023-06-22T18:33:52;18.60;99.90
7196;DHT22;3639;51.308;5.624;2023-06-22T18:36:27;18.50;99.90
7196;DHT22;3639;51.308;5.624;2023-06-22T18:38:53;18.50;99.90
7196;DHT22;3639;51.308;5.624;2023-06-22T18:41:34;18.50;99.90
7196;DHT22;3639;51.308;5.624;2023-06-22T18:44:01;18.50;99.90
7196;DHT22;3639;51.308;5.624;2023-06-22T18:46:36;18.50;99.90
7196;DHT22;3639;51.308;5.624;2023-06-22T18:49:13;18.40;99.90
7196;DHT22;3639;51.308;5.624;2023-06-22T18:51:52;18.40;99.90
7196;DHT22;3639;51.308;5.624;2023-06-22T18:57:26;18.40;99.90
7196;DHT22;3639;51.308;5.624;2023-06-22T19:00:06;18.40;99.90
7196;DHT22;3639;51.308;5.624;2023-06-22T19:15:38;18.40;99.90
7196;DHT22;3639;51.308;5.624;2023-06-22T19:18:22;18.40;99.90
7196;DHT22;3639;51.308;5.624;2023-06-22T19:20:51;18.40;99.90
7196;DHT22;3639;51.308;5.624;2023-06-22T19:23:31;18.30;99.90
7196;DHT22;3639;51.308;5.624;2023-06-22T19:25:59;18.30;99.90
7196;DHT22;3639;51.308;5.624;2023-06-22T19:28:29;18.30;99.90
7196;DHT22;3639;51.308;5.624;2023-06-22T19:30:59;18.30;99.90
7196;DHT22;3639;51.308;5.624;2023-06-22T19:33:26;18.20;99.90
7196;DHT22;3639;51.308;5.624;2023-06-22T19:35:54;18.20;99.90
7196;DHT22;3639;51.308;5.624;2023-06-22T19:38:24;18.20;99.90
7196;DHT22;3639;51.308;5.624;2023-06-22T19:40:51;18.20;99.90
7196;DHT22;3639;51.308;5.624;2023-06-22T19:43:17;18.20;99.90
7196;DHT22;3639;51.308;5.624;2023-06-22T19:45:45;18.20;99.90
7196;DHT22;3639;51.308;5.624;2023-06-22T19:48:12;18.20;99.90
7196;DHT22;3639;51.308;5.624;2023-06-22T19:50:42;18.20;99.90
7196;DHT22;3639;51.308;5.624;2023-06-22T19:53:11;18.20;99.90
7196;DHT22;3639;51.308;5.624;2023-06-22T19:55:40;18.20;99.90
7196;DHT22;3639;51.308;5.624;2023-06-22T19:58:08;18.20;99.90
7196;DHT22;3639;51.308;5.624;2023-06-22T20:00:33;18.20;99.90
7196;DHT22;3639;51.308;5.624;2023-06-22T20:03:00;18.20;99.90
7196;DHT22;3639;51.308;5.624;2023-06-22T20:05:26;18.20;99.90
7196;DHT22;3639;51.308;5.624;2023-06-22T20:07:51;18.20;99.90
7196;DHT22;3639;51.308;5.624;2023-06-22T20:10:19;18.20;99.90
7196;DHT22;3639;51.308;5.624;2023-06-22T20:12:52;18.20;99.90
7196;DHT22;3639;51.308;5.624;2023-06-22T20:18:00;18.10;99.90
7196;DHT22;3639;51.308;5.624;2023-06-22T20:20:31;18.10;99.90
7196;DHT22;3639;51.308;5.624;2023-06-22T20:23:01;18.10;99.90
7196;DHT22;3639;51.308;5.624;2023-06-22T20:25:33;18.10;99.90
7196;DHT22;3639;51.308;5.624;2023-06-22T20:28:12;18.00;99.90
7196;DHT22;3639;51.308;5.624;2023-06-22T20:30:40;18.10;99.90
7196;DHT22;3639;51.308;5.624;2023-06-22T20:33:17;18.10;99.90
7196;DHT22;3639;51.308;5.624;2023-06-22T20:35:43;18.00;99.90
7196;DHT22;3639;51.308;5.624;2023-06-22T20:38:09;18.00;99.90
7196;DHT22;3639;51.308;5.624;2023-06-22T20:40:35;18.00;99.90
7196;DHT22;3639;51.308;5.624;2023-06-22T20:43:01;18.00;99.90
7196;DHT22;3639;51.308;5.624;2023-06-22T20:45:27;18.00;99.90
7196;DHT22;3639;51.308;5.624;2023-06-22T20:47:58;18.00;99.90
7196;DHT22;3639;51.308;5.624;2023-06-22T20:50:25;18.00;99.90
7196;DHT22;3639;51.308;5.624;2023-06-22T20:53:05;18.00;99.90
7196;DHT22;3639;51.308;5.624;2023-06-22T20:55:32;18.00;99.90
7196;DHT22;3639;51.308;5.624;2023-06-22T20:58:03;18.00;99.90
7196;DHT22;3639;51.308;5.624;2023-06-22T21:00:30;18.00;99.90
7196;DHT22;3639;51.308;5.624;2023-06-22T21:03:03;18.00;99.90
7196;DHT22;3639;51.308;5.624;2023-06-22T21:05:29;18.00;99.90
7196;DHT22;3639;51.308;5.624;2023-06-22T21:07:55;18.00;99.90
7196;DHT22;3639;51.308;5.624;2023-06-22T21:10:21;18.00;99.90
7196;DHT22;3639;51.308;5.624;2023-06-22T21:12:49;18.00;99.90
7196;DHT22;3639;51.308;5.624;2023-06-22T21:15:15;18.00;99.90
7196;DHT22;3639;51.308;5.624;2023-06-22T21:17:40;18.00;99.90
7196;DHT22;3639;51.308;5.624;2023-06-22T21:20:07;18.00;99.90
7196;DHT22;3639;51.308;5.624;2023-06-22T21:22:33;18.00;99.90
7196;DHT22;3639;51.308;5.624;2023-06-22T21:25:10;18.10;99.90
7196;DHT22;3639;51.308;5.624;2023-06-22T21:27:37;18.10;99.90
7196;DHT22;3639;51.308;5.624;2023-06-22T21:30:04;18.10;99.90
7196;DHT22;3639;51.308;5.624;2023-06-22T21:32:30;18.10;99.90
7196;DHT22;3639;51.308;5.624;2023-06-22T21:34:56;18.00;99.90
7196;DHT22;3639;51.308;5.624;2023-06-22T21:37:22;18.00;99.90
7196;DHT22;3639;51.308;5.624;2023-06-22T21:39:49;18.00;99.90
7196;DHT22;3639;51.308;5.624;2023-06-22T21:42:15;18.00;99.90
7196;DHT22;3639;51.308;5.624;2023-06-22T21:44:41;18.00;99.90
7196;DHT22;3639;51.308;5.624;2023-06-22T21:47:08;18.00;99.90
7196;DHT22;3639;51.308;5.624;2023-06-22T21:49:34;18.00;99.90
7196;DHT22;3639;51.308;5.624;2023-06-22T21:51:59;18.00;99.90
7196;DHT22;3639;51.308;5.624;2023-06-22T21:54:25;18.00;99.90
7196;DHT22;3639;51.308;5.624;2023-06-22T21:56:50;17.90;99.90
7196;DHT22;3639;51.308;5.624;2023-06-22T21:59:16;17.90;99.90
7196;DHT22;3639;51.308;5.624;2023-06-22T22:01:42;17.80;99.90
7196;DHT22;3639;51.308;5.624;2023-06-22T22:04:08;17.80;99.90
7196;DHT22;3639;51.308;5.624;2023-06-22T22:06:34;17.80;99.90
7196;DHT22;3639;51.308;5.624;2023-06-22T22:09:02;17.70;99.90
7196;DHT22;3639;51.308;5.624;2023-06-22T22:11:29;17.70;99.90
7196;DHT22;3639;51.308;5.624;2023-06-22T22:13:55;17.70;99.90
7196;DHT22;3639;51.308;5.624;2023-06-22T22:16:21;17.60;99.90
7196;DHT22;3639;51.308;5.624;2023-06-22T22:18:46;17.60;99.90
7196;DHT22;3639;51.308;5.624;2023-06-22T22:21:13;17.60;99.90
7196;DHT22;3639;51.308;5.624;2023-06-22T22:23:39;17.60;99.90
7196;DHT22;3639;51.308;5.624;2023-06-22T22:26:04;17.60;99.90
7196;DHT22;3639;51.308;5.624;2023-06-22T22:28:30;17.60;99.90
7196;DHT22;3639;51.308;5.624;2023-06-22T22:30:55;17.60;99.90
7196;DHT22;3639;51.308;5.624;2023-06-22T22:33:21;17.50;99.90
7196;DHT22;3639;51.308;5.624;2023-06-22T22:35:47;17.50;99.90
7196;DHT22;3639;51.308;5.624;2023-06-22T22:38:13;17.50;99.90
7196;DHT22;3639;51.308;5.624;2023-06-22T22:40:38;17.50;99.90
7196;DHT22;3639;51.308;5.624;2023-06-22T22:43:04;17.50;99.90
7196;DHT22;3639;51.308;5.624;2023-06-22T22:45:29;17.50;99.90